Main page
METAR-TAF:

METAR-TAF

Airports :

RNAS Culdrose (HMS Seahawk)

Culdrose, England

latitude: 50-05N, longitude: 005-15W, elevation: 78 m

Current weather observation

The report was made 1 hour and 1 minutes ago, at 05:50 UTC
Wind 9 kt from the Northwest
Temperature 7°C
Humidity 76%
Pressure 1026 hPa
Visibility 10 km or more

METAR: EGDR 170550Z AUTO 32009KT 9999 // BKN029/// 07/03 Q1026

Time: 06:51 (06:51 UTC)

Forecast

The report was made 20 hours and 2 minutes ago, at 10:49 UTC
Forecast valid from 16 at 12 UTC to 16 at 21 UTC
Wind 12 kt from the Northwest
Visibility 10 km or more
Scattered clouds at a height of 3000 ft
Temporary
from 16 at 12 UTC to 16 at 21 UTC
Scattered clouds at a height of 2000 ft
Probability 30% :
Temporary
from 16 at 12 UTC to 16 at 14 UTC
Broken clouds at a height of 1200 ft

TAF: EGDR 161049Z 1612/1621 31012KT 9999 SCT030 TEMPO 1612/1621 SCT020 PROB30 TEMPO 1612/1614 BKN012

Weather observations and forecasts of more than 4000 airports (METAR and TAF reports).

The available stations are represented by yellow and red dots on the map.

Hover mouse over dot to see the name of the station.

Then click to see weather observations and forecasts.

To change the map : click on the green buttons with a black cross to zoom in, on the green button with a dash to zoom out, or on the green arrows for adjacent maps.


METAR-TAF: